»·PEaware :: N183SP KONT-KSNA

N183SP :: KONT-KSNA

FLIGHT INFORMATION

Flight Status: Arrived
Operator: Privately registered:
United States
More flights under this callsign
Pilot: Bruce B. (6887)
Aircraft: CESSNA 172 SKYHAWK
(C172)
More flights by this aircraft type
Origin: KONT Ontario Intl
United States
Destination: KSNA John Wayne-Orange Co
United States
More flights between these airports :: More routes between these airports
Route: +PDZ270 V363 POXKU V8 SLI
File this flight plan on PilotEdge
Remarks:
Altitude:
(Current/Filed)
3,500ft
Speed:
(Current/Filed)
112kts
Departed: 19-Jun-17 08:31 AM
Arrived: 19-Jun-17 08:58 AM
Distance/Time
Traveled:
27nm/0:27
Distance/Time
To Go:
Arrived

Flight Plot

Page will automatically refresh every two minutes.

Flight plan parsing failed; only flown route is shown


Map Options




Map Legend


Flown Route
Filed Route
Departure Airport
Arrival Airport
Navaid (VOR, NDB)
Fix

Horizontal Profiles

Position Reports

Time Latitude Longitude Heading Altitude Ground
Speed
19-Jun-17 08:13 34.051776 -117.603603 90 947ft 0kts
19-Jun-17 08:14 34.051776 -117.603603 90 947ft 0kts
19-Jun-17 08:15 34.051776 -117.603603 90 947ft 0kts
19-Jun-17 08:16 34.051776 -117.603599 90 947ft 0kts
19-Jun-17 08:17 34.051776 -117.603594 90 947ft 0kts
19-Jun-17 08:18 34.051776 -117.603590 90 947ft 0kts
19-Jun-17 08:19 34.051776 -117.603585 90 947ft 0kts
19-Jun-17 08:20 34.051776 -117.603581 90 947ft 0kts
19-Jun-17 08:21 34.051792 -117.603450 64 947ft 5kts
19-Jun-17 08:22 34.052436 -117.603332 3 947ft 0kts
19-Jun-17 08:23 34.052440 -117.603332 3 947ft 0kts
19-Jun-17 08:24 34.052443 -117.603331 3 947ft 0kts
19-Jun-17 08:25 34.052447 -117.603331 3 947ft 0kts
19-Jun-17 08:26 34.052451 -117.603331 3 947ft 0kts
19-Jun-17 08:27 34.052455 -117.603331 3 947ft 0kts
19-Jun-17 08:28 34.052458 -117.603330 3 947ft 0kts
19-Jun-17 08:29 34.052462 -117.603330 3 947ft 0kts
19-Jun-17 08:30 34.053064 -117.602948 26 947ft 12kts
19-Jun-17 08:31 34.053952 -117.602540 22 947ft 0kts
19-Jun-17 08:32 34.053962 -117.602535 22 947ft 1kts
19-Jun-17 08:34 34.054908 -117.606781 266 980ft 64kts
19-Jun-17 08:35 34.049545 -117.629933 245 1748ft 76kts
19-Jun-17 08:36 34.040438 -117.654172 246 2487ft 84kts
19-Jun-17 08:37 34.029633 -117.679940 247 3187ft 89kts
19-Jun-17 08:38 34.017883 -117.709313 245 3515ft 108kts
19-Jun-17 08:39 34.002026 -117.741516 195 3625ft 125kts
19-Jun-17 08:40 33.969057 -117.731603 155 3482ft 130kts
19-Jun-17 08:41 33.940908 -117.715599 137 3483ft 114kts
19-Jun-17 08:42 33.915462 -117.691067 157 3538ft 115kts
19-Jun-17 08:43 33.885226 -117.699781 247 3509ft 130kts
19-Jun-17 08:44 33.905383 -117.700324 52 3501ft 105kts
19-Jun-17 08:45 33.926754 -117.677655 104 3452ft 117kts
19-Jun-17 08:46 33.899765 -117.684295 226 3699ft 107kts
19-Jun-17 08:47 33.898124 -117.715149 317 3949ft 126kts
19-Jun-17 08:48 33.923371 -117.742683 321 4058ft 123kts
19-Jun-17 08:49 33.949582 -117.768977 318 3976ft 111kts
19-Jun-17 08:50 33.937822 -117.787160 189 3877ft 123kts
19-Jun-17 08:51 33.905421 -117.786013 176 3902ft 124kts
19-Jun-17 08:52 33.876135 -117.773808 138 3892ft 118kts
19-Jun-17 08:53 33.845277 -117.760138 168 2946ft 128kts
19-Jun-17 08:54 33.816541 -117.765775 239 2972ft 96kts
19-Jun-17 08:55 33.795896 -117.789766 206 2607ft 117kts
19-Jun-17 08:56 33.768348 -117.807165 199 2413ft 108kts
19-Jun-17 08:57 33.742002 -117.826457 207 1875ft 116kts
19-Jun-17 08:58 33.719946 -117.840856 218 1264ft 89kts
19-Jun-17 08:59 33.698915 -117.854342 206 651ft 78kts
19-Jun-17 09:00 33.681424 -117.865186 208 107ft 63kts
19-Jun-17 09:01 33.674737 -117.868635 162 59ft 3kts
19-Jun-17 09:02 33.672509 -117.866728 139 59ft 7kts
19-Jun-17 09:03 33.672185 -117.866659 206 59ft 0kts
19-Jun-17 09:04 33.672184 -117.866659 206 59ft 0kts
19-Jun-17 09:05 33.672184 -117.866659 206 59ft 0kts
19-Jun-17 09:06 33.672184 -117.866659 206 59ft 0kts

Navigation Log

Ident Type
Flight plan parsing failed, navigation log unavailable